Time;durP1;ratioP1;P1;durP2;ratioP2;P2;SDS_P1;SDS_P2;PMS_P1;PMS_P2;Temp;Humidity;BMP_temperature;BMP_pressure;BME280_temperature;BME280_humidity;BME280_pressure;Samples;Min_cycle;Max_cycle;Signal;HPM_P1;HPM_P2
2022/01/21 00:01:06;;;;;;;11.35;6.82;;;;;;;;;;5018593;28;20022;-55
2022/01/21 00:03:31;;;;;;;10.23;6.65;;;;;;;;;;5032076;28;20021;-55
2022/01/21 00:05:57;;;;;;;10.30;6.28;;;;;;;;;;5042578;28;20047;-54
2022/01/21 00:08:22;;;;;;;12.00;6.90;;;;;;;;;;5026477;28;20474;-54
2022/01/21 00:10:47;;;;;;;11.97;6.90;;;;;;;;;;5042820;28;20268;-55
2022/01/21 00:13:24;;;;;;;10.45;6.65;;;;;;;;;;5029217;28;20265;-55
2022/01/21 00:15:49;;;;;;;10.45;6.55;;;;;;;;;;5026616;28;20025;-54
2022/01/21 00:18:15;;;;;;;11.30;6.90;;;;;;;;;;5042244;28;20033;-54
2022/01/21 00:31:36;;;;;;;10.95;6.95;;;;;;;;;;5042374;28;20036;-54
2022/01/21 00:34:01;;;;;;;11.77;6.97;;;;;;;;;;5017335;28;20566;-54
2022/01/21 00:36:26;;;;;;;11.00;7.23;;;;;;;;;;5034457;28;20493;-55
2022/01/21 00:38:54;;;;;;;11.15;6.82;;;;;;;;;;5042224;28;20276;-55
2022/01/21 00:41:23;;;;;;;10.27;6.82;;;;;;;;;;5042184;28;20025;-54
2022/01/21 00:43:48;;;;;;;10.70;6.60;;;;;;;;;;5041685;28;20491;-54
2022/01/21 00:46:14;;;;;;;10.73;6.97;;;;;;;;;;5042013;28;20096;-54
2022/01/21 00:48:39;;;;;;;10.90;6.73;;;;;;;;;;5025390;28;20299;-54
2022/01/21 00:51:04;;;;;;;11.48;6.78;;;;;;;;;;5041994;28;20858;-54
2022/01/21 00:53:29;;;;;;;10.93;6.43;;;;;;;;;;5025605;28;20113;-55
2022/01/21 00:55:55;;;;;;;10.30;6.73;;;;;;;;;;5025310;28;20028;-54
2022/01/21 00:58:20;;;;;;;9.47;6.37;;;;;;;;;;5041821;28;20116;-54
2022/01/21 01:00:45;;;;;;;11.75;7.00;;;;;;;;;;5041625;28;20311;-54
2022/01/21 01:03:13;;;;;;;10.20;6.57;;;;;;;;;;5041781;28;20025;-54
2022/01/21 01:05:38;;;;;;;9.73;6.50;;;;;;;;;;5041558;28;20876;-54
2022/01/21 01:08:03;;;;;;;9.82;6.40;;;;;;;;;;5029079;28;20120;-54
2022/01/21 01:21:37;;;;;;;10.45;5.90;;;;;;;;;;5041233;28;20595;-56
2022/01/21 01:29:11;;;;;;;9.27;6.55;;;;;;;;;;5012743;28;20048;-55
2022/01/21 01:31:36;;;;;;;9.70;6.40;;;;;;;;;;5040164;28;20025;-55
2022/01/21 01:34:02;;;;;;;9.40;6.20;;;;;;;;;;5018565;28;20785;-55
2022/01/21 01:36:28;;;;;;;9.77;6.55;;;;;;;;;;5037433;28;20295;-55
2022/01/21 01:39:13;;;;;;;9.05;5.57;;;;;;;;;;5045307;28;20640;-54
2022/01/21 01:41:44;;;;;;;10.05;6.40;;;;;;;;;;5045209;28;20040;-55
2022/01/21 01:49:37;;;;;;;8.93;6.15;;;;;;;;;;5034167;28;20083;-53
2022/01/21 01:52:09;;;;;;;9.88;6.43;;;;;;;;;;5045167;28;20425;-55
2022/01/21 01:54:36;;;;;;;9.48;5.95;;;;;;;;;;5011899;28;20557;-54
2022/01/21 01:57:01;;;;;;;10.02;6.20;;;;;;;;;;5044928;28;20461;-54
2022/01/21 01:59:26;;;;;;;10.13;6.50;;;;;;;;;;5045129;28;20027;-54
2022/01/21 02:01:53;;;;;;;8.63;5.53;;;;;;;;;;5044689;28;20037;-54
2022/01/21 02:04:18;;;;;;;10.32;5.65;;;;;;;;;;5044773;28;20803;-54
2022/01/21 02:06:43;;;;;;;9.30;5.83;;;;;;;;;;5043269;28;20029;-54
2022/01/21 02:09:08;;;;;;;9.47;6.33;;;;;;;;;;5024860;28;20824;-54
2022/01/21 02:11:33;;;;;;;9.43;5.70;;;;;;;;;;5024688;28;20519;-54
2022/01/21 02:14:01;;;;;;;8.80;5.68;;;;;;;;;;5024653;28;20782;-54
2022/01/21 02:21:37;;;;;;;9.05;5.60;;;;;;;;;;5024928;28;20557;-55
2022/01/21 02:24:04;;;;;;;9.90;5.88;;;;;;;;;;5024878;28;20021;-55
2022/01/21 02:26:30;;;;;;;8.48;5.75;;;;;;;;;;5024400;28;20495;-54
2022/01/21 02:28:56;;;;;;;8.65;5.40;;;;;;;;;;5007745;28;20137;-54
2022/01/21 02:31:21;;;;;;;8.73;5.53;;;;;;;;;;5024556;28;20021;-54
2022/01/21 02:33:46;;;;;;;8.90;5.50;;;;;;;;;;5014522;28;20022;-54
2022/01/21 02:36:11;;;;;;;7.35;5.00;;;;;;;;;;5018045;28;20112;-55
2022/01/21 02:38:37;;;;;;;9.67;5.50;;;;;;;;;;5024325;28;20038;-54
2022/01/21 02:41:02;;;;;;;8.05;5.25;;;;;;;;;;5024191;28;20631;-54
2022/01/21 02:43:27;;;;;;;8.27;5.23;;;;;;;;;;5024030;28;20033;-54
2022/01/21 02:45:52;;;;;;;8.77;5.40;;;;;;;;;;5022770;28;20282;-54
2022/01/21 02:48:20;;;;;;;8.55;5.05;;;;;;;;;;5010302;28;20356;-54
2022/01/21 02:50:45;;;;;;;9.35;5.50;;;;;;;;;;5022276;28;20060;-55
2022/01/21 02:55:56;;;;;;;7.97;5.03;;;;;;;;;;4981466;28;20701;-57
2022/01/21 02:58:24;;;;;;;8.48;5.25;;;;;;;;;;5033736;28;20075;-54
2022/01/21 03:00:51;;;;;;;7.57;5.07;;;;;;;;;;5043858;28;20017;-54
2022/01/21 03:03:17;;;;;;;8.25;5.30;;;;;;;;;;5043968;28;20100;-54
2022/01/21 03:05:42;;;;;;;8.23;4.93;;;;;;;;;;5043485;28;20180;-54
2022/01/21 03:08:07;;;;;;;6.90;4.70;;;;;;;;;;5030763;28;20355;-54
2022/01/21 03:10:32;;;;;;;7.65;4.82;;;;;;;;;;5023601;28;20060;-54
2022/01/21 03:12:58;;;;;;;7.70;5.17;;;;;;;;;;5023267;28;20025;-55
2022/01/21 03:15:23;;;;;;;7.00;4.70;;;;;;;;;;5023477;28;20280;-55
2022/01/21 03:17:48;;;;;;;7.13;4.70;;;;;;;;;;5002521;28;20328;-54
2022/01/21 03:20:13;;;;;;;7.22;4.82;;;;;;;;;;5016803;28;20053;-54
2022/01/21 03:22:39;;;;;;;7.43;4.73;;;;;;;;;;5023111;28;20032;-54
2022/01/21 03:25:05;;;;;;;6.63;4.65;;;;;;;;;;5002283;28;20265;-55
2022/01/21 03:27:30;;;;;;;7.00;4.53;;;;;;;;;;5003472;28;20026;-55
2022/01/21 03:29:55;;;;;;;7.13;4.33;;;;;;;;;;5014394;28;20470;-55
2022/01/21 03:32:21;;;;;;;6.93;4.40;;;;;;;;;;5022994;28;20466;-54
2022/01/21 03:34:46;;;;;;;6.88;4.38;;;;;;;;;;5023847;28;20259;-55
2022/01/21 03:37:12;;;;;;;6.83;4.50;;;;;;;;;;5023217;28;20029;-54
2022/01/21 03:39:37;;;;;;;6.90;4.17;;;;;;;;;;5023087;28;20264;-54
2022/01/21 03:42:02;;;;;;;7.70;5.00;;;;;;;;;;5023393;28;20355;-54
2022/01/21 03:44:27;;;;;;;7.22;4.63;;;;;;;;;;5023282;28;20272;-54
2022/01/21 03:46:53;;;;;;;7.20;4.50;;;;;;;;;;5021429;28;20030;-54
2022/01/21 03:49:18;;;;;;;6.93;4.50;;;;;;;;;;5019843;28;20037;-54
2022/01/21 03:51:43;;;;;;;6.77;4.60;;;;;;;;;;5043342;28;20024;-56
2022/01/21 03:54:08;;;;;;;6.77;4.47;;;;;;;;;;5017483;28;20273;-55
2022/01/21 03:56:35;;;;;;;6.72;4.28;;;;;;;;;;5018548;28;20091;-56
2022/01/21 03:59:00;;;;;;;8.35;4.63;;;;;;;;;;5022489;28;20033;-55
2022/01/21 04:01:28;;;;;;;6.57;4.27;;;;;;;;;;5022660;28;20032;-54
2022/01/21 04:03:53;;;;;;;6.18;4.18;;;;;;;;;;5024469;28;20280;-54
2022/01/21 04:06:18;;;;;;;6.28;4.35;;;;;;;;;;5042093;28;20020;-54
2022/01/21 04:08:43;;;;;;;8.47;4.13;;;;;;;;;;5041939;28;20025;-55
2022/01/21 04:11:09;;;;;;;6.55;4.00;;;;;;;;;;5041626;28;20013;-54
2022/01/21 04:13:34;;;;;;;6.67;3.77;;;;;;;;;;5023384;28;20080;-54
2022/01/21 04:16:00;;;;;;;6.35;4.00;;;;;;;;;;5041655;28;20248;-55
2022/01/21 04:18:25;;;;;;;6.22;3.92;;;;;;;;;;5026401;28;20063;-57
2022/01/21 04:20:51;;;;;;;5.68;3.80;;;;;;;;;;5032594;28;20570;-56
2022/01/21 04:23:16;;;;;;;5.20;3.35;;;;;;;;;;5029919;28;20029;-56
2022/01/21 04:25:42;;;;;;;5.65;3.72;;;;;;;;;;5023585;28;20476;-56
2022/01/21 04:28:07;;;;;;;6.50;4.10;;;;;;;;;;5036998;28;20029;-55
2022/01/21 04:30:32;;;;;;;6.70;3.78;;;;;;;;;;5041078;28;20435;-56
2022/01/21 04:32:57;;;;;;;5.47;3.47;;;;;;;;;;5040592;28;20029;-57
2022/01/21 04:35:23;;;;;;;6.22;3.80;;;;;;;;;;5031663;28;20025;-56
2022/01/21 04:37:57;;;;;;;5.67;3.50;;;;;;;;;;5020921;28;20033;-55
2022/01/21 04:40:26;;;;;;;5.50;3.60;;;;;;;;;;4976997;28;20044;-55
2022/01/21 04:48:20;;;;;;;4.90;3.22;;;;;;;;;;5021713;28;20522;-55
2022/01/21 04:51:00;;;;;;;5.03;2.92;;;;;;;;;;5021471;28;20025;-55
2022/01/21 04:53:26;;;;;;;5.40;3.05;;;;;;;;;;5015474;28;20026;-54
2022/01/21 04:55:51;;;;;;;4.38;3.05;;;;;;;;;;5011648;28;20499;-55
2022/01/21 04:58:17;;;;;;;5.07;2.95;;;;;;;;;;5009407;28;20053;-54
2022/01/21 05:00:43;;;;;;;4.68;2.80;;;;;;;;;;5018149;28;20433;-54
2022/01/21 05:03:09;;;;;;;4.35;3.00;;;;;;;;;;5021722;28;20021;-55
2022/01/21 05:05:36;;;;;;;4.85;3.28;;;;;;;;;;5022226;28;20060;-55
2022/01/21 05:08:05;;;;;;;5.15;3.03;;;;;;;;;;5030405;28;20029;-55
2022/01/21 05:10:30;;;;;;;4.55;3.00;;;;;;;;;;5040743;28;20063;-56
2022/01/21 05:12:55;;;;;;;4.27;2.73;;;;;;;;;;5040936;28;20063;-54
2022/01/21 05:15:58;;;;;;;4.57;3.22;;;;;;;;;;5016938;28;20764;-55
2022/01/21 05:18:06;;;;;;;4.93;2.90;;;;;;;;;;5019237;28;20041;-55
2022/01/21 05:20:31;;;;;;;4.43;2.93;;;;;;;;;;5015475;28;20026;-55
2022/01/21 05:22:56;;;;;;;4.17;3.00;;;;;;;;;;5024092;28;20095;-55
2022/01/21 05:25:22;;;;;;;4.70;3.00;;;;;;;;;;5025323;28;20350;-54
2022/01/21 05:27:48;;;;;;;4.57;2.90;;;;;;;;;;5025406;28;20072;-54
2022/01/21 05:30:13;;;;;;;4.82;3.00;;;;;;;;;;5021778;28;20056;-55
2022/01/21 05:32:39;;;;;;;4.55;2.38;;;;;;;;;;5007019;28;20033;-54
2022/01/21 05:35:05;;;;;;;3.50;2.30;;;;;;;;;;5011844;28;20502;-54
2022/01/21 05:37:30;;;;;;;5.10;2.80;;;;;;;;;;5031377;28;20311;-54
2022/01/21 05:39:55;;;;;;;3.80;2.45;;;;;;;;;;5037510;28;20027;-53
2022/01/21 05:42:21;;;;;;;4.38;2.60;;;;;;;;;;5032921;28;20484;-53
2022/01/21 05:47:11;;;;;;;3.67;2.40;;;;;;;;;;5041071;28;20045;-54
2022/01/21 05:49:36;;;;;;;3.47;2.73;;;;;;;;;;5007353;28;20029;-54
2022/01/21 05:52:08;;;;;;;4.40;2.28;;;;;;;;;;5036049;28;20880;-54
2022/01/21 05:54:34;;;;;;;5.53;2.47;;;;;;;;;;5014291;28;20025;-54
2022/01/21 05:57:01;;;;;;;3.60;2.20;;;;;;;;;;5043496;28;20533;-54
2022/01/21 05:59:26;;;;;;;3.83;2.35;;;;;;;;;;5045998;28;20103;-55
2022/01/21 06:01:51;;;;;;;3.47;2.40;;;;;;;;;;5045381;28;20546;-54
2022/01/21 06:04:16;;;;;;;3.87;2.20;;;;;;;;;;5044609;28;20850;-55
2022/01/21 06:06:42;;;;;;;3.90;2.50;;;;;;;;;;5026861;28;20559;-57
2022/01/21 06:09:07;;;;;;;3.93;2.43;;;;;;;;;;5027942;28;20263;-56
2022/01/21 06:11:32;;;;;;;4.60;2.77;;;;;;;;;;5044432;28;20017;-55
2022/01/21 06:13:59;;;;;;;4.82;2.45;;;;;;;;;;5023833;28;20277;-54
2022/01/21 06:16:24;;;;;;;5.40;2.40;;;;;;;;;;5023175;28;20116;-55
2022/01/21 06:18:50;;;;;;;3.73;2.23;;;;;;;;;;5026172;28;20108;-54
2022/01/21 06:21:15;;;;;;;4.67;2.40;;;;;;;;;;5010764;28;20267;-55
2022/01/21 06:23:40;;;;;;;3.38;2.20;;;;;;;;;;5016563;28;20269;-55
2022/01/21 06:26:05;;;;;;;3.53;2.20;;;;;;;;;;5015805;28;20029;-54
2022/01/21 06:28:31;;;;;;;3.23;2.20;;;;;;;;;;5024467;28;20523;-56
2022/01/21 06:30:56;;;;;;;4.10;2.60;;;;;;;;;;5042456;28;20511;-56
2022/01/21 06:33:21;;;;;;;3.77;2.10;;;;;;;;;;5034049;28;20507;-56
2022/01/21 06:35:49;;;;;;;3.50;2.30;;;;;;;;;;5021984;28;20262;-56
2022/01/21 06:38:15;;;;;;;3.38;2.22;;;;;;;;;;5044213;28;20087;-55
2022/01/21 06:40:40;;;;;;;3.13;2.08;;;;;;;;;;5044037;28;20033;-55
2022/01/21 06:43:05;;;;;;;3.40;2.22;;;;;;;;;;5043565;28;20801;-56
2022/01/21 06:45:30;;;;;;;4.20;2.45;;;;;;;;;;5032140;28;20546;-56
2022/01/21 06:47:59;;;;;;;4.20;2.40;;;;;;;;;;5023430;28;20029;-59
2022/01/21 06:50:27;;;;;;;3.25;2.53;;;;;;;;;;5037721;28;20198;-57
2022/01/21 06:52:52;;;;;;;3.90;2.15;;;;;;;;;;5018486;28;20029;-58
2022/01/21 06:55:17;;;;;;;3.03;2.03;;;;;;;;;;5021095;28;20023;-56
2022/01/21 06:57:42;;;;;;;4.07;2.30;;;;;;;;;;5043572;28;20287;-56
2022/01/21 07:00:09;;;;;;;3.10;2.00;;;;;;;;;;5044121;28;20303;-56
2022/01/21 07:02:34;;;;;;;4.05;2.50;;;;;;;;;;5044047;28;20021;-57
2022/01/21 07:04:59;;;;;;;3.35;2.00;;;;;;;;;;5043453;28;20352;-57
2022/01/21 07:07:25;;;;;;;3.47;2.17;;;;;;;;;;5038437;28;20408;-57
2022/01/21 07:09:50;;;;;;;3.27;2.17;;;;;;;;;;5032486;28;20036;-57
2022/01/21 07:12:15;;;;;;;4.03;2.27;;;;;;;;;;5043854;28;20787;-57
2022/01/21 07:14:40;;;;;;;3.80;2.30;;;;;;;;;;5012564;28;20253;-57
2022/01/21 07:17:06;;;;;;;3.50;2.13;;;;;;;;;;5041876;28;20323;-57
2022/01/21 07:19:31;;;;;;;3.05;2.10;;;;;;;;;;5033666;28;20272;-57
2022/01/21 07:21:56;;;;;;;3.50;2.20;;;;;;;;;;5022973;28;20079;-56
2022/01/21 07:24:21;;;;;;;2.95;2.00;;;;;;;;;;5043222;28;20283;-57
2022/01/21 07:26:47;;;;;;;3.40;2.07;;;;;;;;;;5042979;28;20718;-58
2022/01/21 07:29:12;;;;;;;3.03;1.85;;;;;;;;;;5027064;28;20267;-57
2022/01/21 07:31:38;;;;;;;3.15;2.03;;;;;;;;;;5034872;28;20024;-56
2022/01/21 07:34:06;;;;;;;3.40;2.00;;;;;;;;;;5011632;28;20025;-56
2022/01/21 07:36:31;;;;;;;3.88;2.00;;;;;;;;;;5012000;28;20277;-57
2022/01/21 07:38:57;;;;;;;3.22;1.90;;;;;;;;;;5018104;28;20028;-56
2022/01/21 07:41:22;;;;;;;3.15;1.90;;;;;;;;;;5042770;28;20071;-56
2022/01/21 07:43:47;;;;;;;3.00;2.05;;;;;;;;;;5037194;28;20629;-56
2022/01/21 07:46:12;;;;;;;3.70;2.10;;;;;;;;;;5011548;28;20018;-56
2022/01/21 07:48:38;;;;;;;3.90;2.20;;;;;;;;;;5014005;28;20484;-56
2022/01/21 07:51:03;;;;;;;3.88;2.28;;;;;;;;;;5014072;28;20469;-57
2022/01/21 07:53:28;;;;;;;3.53;2.20;;;;;;;;;;5015436;28;20036;-58
2022/01/21 07:55:54;;;;;;;3.60;2.35;;;;;;;;;;5019663;28;20803;-56
2022/01/21 07:58:19;;;;;;;3.47;2.47;;;;;;;;;;5020266;28;20587;-56
2022/01/21 08:00:44;;;;;;;4.78;2.10;;;;;;;;;;5017359;28;20111;-58
2022/01/21 08:03:09;;;;;;;3.10;2.05;;;;;;;;;;5022563;28;20029;-58
2022/01/21 08:05:35;;;;;;;4.10;2.20;;;;;;;;;;5042482;28;20060;-56
2022/01/21 08:08:00;;;;;;;3.72;2.40;;;;;;;;;;5042266;28;20267;-57
2022/01/21 08:10:26;;;;;;;3.42;2.60;;;;;;;;;;5031616;28;20411;-57
2022/01/21 08:12:51;;;;;;;3.28;2.33;;;;;;;;;;5026660;28;20055;-57
2022/01/21 08:15:16;;;;;;;3.58;2.42;;;;;;;;;;5022633;28;20041;-57
2022/01/21 08:17:42;;;;;;;3.25;2.10;;;;;;;;;;5022396;28;20041;-56
2022/01/21 08:20:07;;;;;;;4.03;2.43;;;;;;;;;;5022282;28;20025;-57
2022/01/21 08:22:32;;;;;;;3.95;2.30;;;;;;;;;;5022030;28;20766;-57
2022/01/21 08:24:58;;;;;;;3.30;1.93;;;;;;;;;;5005823;28;20113;-57
2022/01/21 08:27:23;;;;;;;3.42;2.20;;;;;;;;;;5022451;28;20120;-57
2022/01/21 08:29:50;;;;;;;3.05;1.98;;;;;;;;;;5021989;28;20515;-57
2022/01/21 08:32:15;;;;;;;3.85;2.42;;;;;;;;;;5033664;28;20033;-57
2022/01/21 08:34:40;;;;;;;3.38;2.10;;;;;;;;;;5027017;28;20516;-57
2022/01/21 08:37:05;;;;;;;3.30;1.80;;;;;;;;;;5021884;28;20021;-57
2022/01/21 08:39:32;;;;;;;4.00;2.20;;;;;;;;;;5022212;28;20768;-57
2022/01/21 08:41:57;;;;;;;4.07;2.00;;;;;;;;;;5021963;28;20020;-57
2022/01/21 08:44:22;;;;;;;3.15;2.00;;;;;;;;;;5020810;28;20025;-56
2022/01/21 08:46:47;;;;;;;3.10;2.00;;;;;;;;;;5022333;28;20462;-57
2022/01/21 08:49:13;;;;;;;3.20;1.90;;;;;;;;;;5005176;28;20483;-57
2022/01/21 08:51:57;;;;;;;2.75;2.00;;;;;;;;;;5015876;28;20057;-57
2022/01/21 08:54:23;;;;;;;3.17;1.92;;;;;;;;;;5014177;28;20014;-57
2022/01/21 08:56:49;;;;;;;2.97;1.75;;;;;;;;;;5021940;28;20498;-57
2022/01/21 08:59:14;;;;;;;4.10;2.05;;;;;;;;;;5019166;28;20065;-57
2022/01/21 09:01:39;;;;;;;3.28;1.90;;;;;;;;;;5007951;28;20492;-57
2022/01/21 09:04:04;;;;;;;3.07;2.10;;;;;;;;;;5022784;28;20063;-57
2022/01/21 09:06:30;;;;;;;2.75;1.85;;;;;;;;;;5016900;28;20017;-57
2022/01/21 09:08:55;;;;;;;2.63;1.90;;;;;;;;;;5007975;28;20033;-57
2022/01/21 09:11:21;;;;;;;2.78;1.77;;;;;;;;;;5022011;28;20509;-57
2022/01/21 09:13:46;;;;;;;3.07;1.83;;;;;;;;;;5021772;28;20373;-57
2022/01/21 09:16:11;;;;;;;2.30;1.60;;;;;;;;;;5021956;28;20039;-57
2022/01/21 09:18:48;;;;;;;2.53;1.58;;;;;;;;;;5021749;28;20546;-57
2022/01/21 09:21:13;;;;;;;2.47;1.75;;;;;;;;;;5021563;28;20036;-57
2022/01/21 09:23:39;;;;;;;2.45;1.73;;;;;;;;;;5021286;28;20029;-57
2022/01/21 09:26:04;;;;;;;2.50;1.70;;;;;;;;;;5031115;28;20071;-56
2022/01/21 09:28:29;;;;;;;3.13;1.93;;;;;;;;;;5041568;28;20031;-57
2022/01/21 09:30:54;;;;;;;2.50;1.63;;;;;;;;;;5041840;28;20017;-56
2022/01/21 09:33:19;;;;;;;2.85;1.75;;;;;;;;;;5038398;28;20264;-56
2022/01/21 09:35:45;;;;;;;3.40;1.70;;;;;;;;;;5021926;28;20558;-56
2022/01/21 09:38:10;;;;;;;3.43;1.90;;;;;;;;;;5021800;28;20296;-58
2022/01/21 09:40:38;;;;;;;3.40;1.90;;;;;;;;;;5008279;28;20265;-56
2022/01/21 09:43:03;;;;;;;2.60;1.80;;;;;;;;;;5001503;28;20547;-56
2022/01/21 09:45:29;;;;;;;3.27;1.80;;;;;;;;;;5003845;28;20415;-56
2022/01/21 09:47:55;;;;;;;2.90;1.58;;;;;;;;;;5022712;28;20056;-56
2022/01/21 09:50:20;;;;;;;4.45;1.85;;;;;;;;;;5023224;28;20034;-57
2022/01/21 09:52:46;;;;;;;2.65;1.70;;;;;;;;;;5023216;28;20018;-56
2022/01/21 09:55:12;;;;;;;1.88;1.27;;;;;;;;;;5023499;28;20555;-57
2022/01/21 09:57:38;;;;;;;2.85;1.80;;;;;;;;;;5025955;28;20028;-56
2022/01/21 10:00:03;;;;;;;2.55;1.60;;;;;;;;;;5006702;28;20128;-57
2022/01/21 10:02:29;;;;;;;2.42;1.55;;;;;;;;;;5006367;28;20121;-57
2022/01/21 10:04:56;;;;;;;2.10;1.38;;;;;;;;;;5025638;28;20424;-57
2022/01/21 10:07:21;;;;;;;2.85;1.60;;;;;;;;;;5026398;28;20038;-57
2022/01/21 10:09:47;;;;;;;3.95;1.60;;;;;;;;;;5022958;28;20027;-56
2022/01/21 10:12:12;;;;;;;2.70;1.50;;;;;;;;;;5024969;28;20475;-56
2022/01/21 10:14:38;;;;;;;3.75;1.70;;;;;;;;;;5022007;28;20052;-56
2022/01/21 10:17:04;;;;;;;4.30;1.70;;;;;;;;;;5042061;28;20037;-54
2022/01/21 10:19:31;;;;;;;4.50;1.52;;;;;;;;;;5045643;28;20056;-56
2022/01/21 10:21:57;;;;;;;4.43;1.70;;;;;;;;;;5044932;28;20555;-56
2022/01/21 10:24:22;;;;;;;2.92;1.60;;;;;;;;;;5044563;28;20450;-57
2022/01/21 10:26:49;;;;;;;2.83;1.60;;;;;;;;;;5044766;28;20062;-57
2022/01/21 10:29:14;;;;;;;3.72;1.70;;;;;;;;;;5044488;28;20324;-57
2022/01/21 10:31:54;;;;;;;3.80;1.50;;;;;;;;;;5044291;28;20028;-56
2022/01/21 10:34:26;;;;;;;2.42;1.33;;;;;;;;;;5033823;28;20030;-57
2022/01/21 10:36:57;;;;;;;4.07;1.63;;;;;;;;;;5024667;28;20108;-57
2022/01/21 10:39:29;;;;;;;4.68;1.70;;;;;;;;;;5024381;28;20108;-58
2022/01/21 10:41:57;;;;;;;4.07;1.50;;;;;;;;;;5024101;28;20604;-57
2022/01/21 10:44:25;;;;;;;3.47;1.75;;;;;;;;;;5024534;28;20017;-56
2022/01/21 10:47:07;;;;;;;3.30;1.40;;;;;;;;;;5024539;28;20524;-57
2022/01/21 10:49:32;;;;;;;5.57;2.03;;;;;;;;;;5024550;28;20028;-57
2022/01/21 10:51:57;;;;;;;3.25;1.50;;;;;;;;;;5023690;28;20021;-58
2022/01/21 10:54:26;;;;;;;2.93;1.43;;;;;;;;;;5024304;28;20693;-56
2022/01/21 10:57:10;;;;;;;2.67;1.40;;;;;;;;;;5023678;28;20033;-56
2022/01/21 10:59:44;;;;;;;3.88;1.48;;;;;;;;;;5026309;28;20033;-57
2022/01/21 11:02:11;;;;;;;3.22;1.73;;;;;;;;;;5026835;28;20578;-57
2022/01/21 11:04:42;;;;;;;3.33;1.58;;;;;;;;;;5019180;28;20046;-57
2022/01/21 11:07:08;;;;;;;3.22;1.73;;;;;;;;;;5038880;28;20035;-58
2022/01/21 11:09:35;;;;;;;3.10;1.77;;;;;;;;;;5044063;28;20016;-55
2022/01/21 11:12:11;;;;;;;3.15;1.88;;;;;;;;;;5027797;28;20435;-57
2022/01/21 11:14:36;;;;;;;3.88;1.83;;;;;;;;;;5024060;28;20075;-57
2022/01/21 11:17:09;;;;;;;4.43;1.75;;;;;;;;;;5023788;28;20054;-57
2022/01/21 11:19:35;;;;;;;4.28;1.95;;;;;;;;;;5024201;28;20017;-62
2022/01/21 11:22:01;;;;;;;5.90;2.42;;;;;;;;;;5043648;28;20097;-59
2022/01/21 11:24:27;;;;;;;4.68;2.08;;;;;;;;;;5043688;28;20495;-57
2022/01/21 11:27:05;;;;;;;4.38;1.80;;;;;;;;;;5030946;28;20032;-57
2022/01/21 11:29:30;;;;;;;3.17;1.98;;;;;;;;;;5021084;28;20480;-60
2022/01/21 11:31:55;;;;;;;4.03;1.85;;;;;;;;;;5004596;28;20028;-56
2022/01/21 11:34:21;;;;;;;3.70;1.90;;;;;;;;;;5020286;28;20033;-56
2022/01/21 11:36:46;;;;;;;4.10;2.03;;;;;;;;;;5014654;28;20088;-57
2022/01/21 11:39:11;;;;;;;3.60;1.70;;;;;;;;;;5004968;28;20032;-60
2022/01/21 11:41:36;;;;;;;4.20;1.90;;;;;;;;;;5002059;28;20026;-59
2022/01/21 11:44:03;;;;;;;5.43;2.30;;;;;;;;;;5002741;28;20296;-56
2022/01/21 11:49:00;;;;;;;3.45;1.90;;;;;;;;;;4984141;28;20063;-57
2022/01/21 11:51:32;;;;;;;4.22;2.03;;;;;;;;;;4994730;28;20029;-57
2022/01/21 11:53:59;;;;;;;4.53;2.08;;;;;;;;;;5014571;28;20060;-59
2022/01/21 11:56:42;;;;;;;5.07;2.38;;;;;;;;;;4996235;28;20041;-57
2022/01/21 11:59:08;;;;;;;4.38;2.10;;;;;;;;;;5017348;28;20561;-57
2022/01/21 12:01:39;;;;;;;4.47;2.22;;;;;;;;;;5017792;28;20384;-56
2022/01/21 12:04:05;;;;;;;4.22;2.00;;;;;;;;;;5017838;28;20124;-56
2022/01/21 12:06:31;;;;;;;4.10;2.00;;;;;;;;;;5016713;28;20033;-56
2022/01/21 12:08:57;;;;;;;4.63;2.22;;;;;;;;;;5015151;28;20557;-56
2022/01/21 12:11:28;;;;;;;4.32;2.22;;;;;;;;;;5016832;28;20039;-57
2022/01/21 12:13:53;;;;;;;5.03;2.60;;;;;;;;;;5014660;28;20025;-58
2022/01/21 12:16:24;;;;;;;4.57;2.20;;;;;;;;;;5012098;28;20484;-58
2022/01/21 12:21:27;;;;;;;5.28;2.25;;;;;;;;;;5017929;28;20017;-57
2022/01/21 12:23:52;;;;;;;4.22;2.38;;;;;;;;;;5015591;28;20027;-59
2022/01/21 12:26:21;;;;;;;5.10;2.70;;;;;;;;;;5009590;28;20030;-58
2022/01/21 12:28:53;;;;;;;5.03;2.60;;;;;;;;;;5016932;28;20036;-57
2022/01/21 12:31:19;;;;;;;4.85;2.45;;;;;;;;;;5017516;28;20037;-57
2022/01/21 12:33:51;;;;;;;4.88;2.75;;;;;;;;;;5001553;28;20033;-59
2022/01/21 12:36:21;;;;;;;4.65;2.80;;;;;;;;;;5006306;28;20514;-59
2022/01/21 12:41:17;;;;;;;6.27;2.40;;;;;;;;;;5002710;28;20377;-56
2022/01/21 12:43:56;;;;;;;4.35;2.40;;;;;;;;;;5009556;28;20022;-58
2022/01/21 12:46:41;;;;;;;4.67;2.30;;;;;;;;;;5012500;28;20561;-57
2022/01/21 12:49:25;;;;;;;5.35;2.35;;;;;;;;;;5015131;28;20504;-56
2022/01/21 12:52:12;;;;;;;4.47;2.20;;;;;;;;;;5015602;28;20075;-56
2022/01/21 12:57:30;;;;;;;4.65;2.20;;;;;;;;;;5002414;28;20100;-56
2022/01/21 12:59:56;;;;;;;4.43;2.33;;;;;;;;;;5012372;28;20557;-57
2022/01/21 13:02:27;;;;;;;4.25;2.00;;;;;;;;;;4997120;28;20018;-58
2022/01/21 13:05:01;;;;;;;4.72;2.35;;;;;;;;;;5003570;28;20054;-57
2022/01/21 13:07:31;;;;;;;4.15;2.17;;;;;;;;;;5005745;28;20036;-59
2022/01/21 13:10:15;;;;;;;3.63;2.30;;;;;;;;;;5022787;28;20122;-59
2022/01/21 13:15:38;;;;;;;4.07;2.15;;;;;;;;;;5012724;28;20121;-56
2022/01/21 13:18:10;;;;;;;5.47;2.10;;;;;;;;;;5015799;28;20098;-58
2022/01/21 13:20:36;;;;;;;4.68;2.60;;;;;;;;;;5015145;28;20044;-58
2022/01/21 13:23:02;;;;;;;3.28;2.03;;;;;;;;;;5014465;28;20092;-57
2022/01/21 13:25:28;;;;;;;4.27;2.30;;;;;;;;;;5018490;28;20053;-58
2022/01/21 13:27:54;;;;;;;5.05;2.47;;;;;;;;;;5015998;28;20260;-57
2022/01/21 13:30:23;;;;;;;3.20;1.90;;;;;;;;;;5014096;28;20311;-56
2022/01/21 13:32:56;;;;;;;5.00;2.53;;;;;;;;;;5017004;28;20041;-57
2022/01/21 13:35:23;;;;;;;4.75;1.92;;;;;;;;;;5020825;28;20025;-57
2022/01/21 13:38:08;;;;;;;4.60;2.45;;;;;;;;;;5023185;28;20029;-58
2022/01/21 13:40:35;;;;;;;4.65;2.13;;;;;;;;;;5013359;28;20145;-59
2022/01/21 13:43:10;;;;;;;3.83;2.10;;;;;;;;;;5004791;28;20040;-58
2022/01/21 13:45:36;;;;;;;4.60;2.28;;;;;;;;;;5023862;28;20893;-58
2022/01/21 13:48:02;;;;;;;4.50;2.25;;;;;;;;;;5020125;28;20495;-58
2022/01/21 13:50:27;;;;;;;4.05;2.20;;;;;;;;;;5019692;28;20049;-57
2022/01/21 13:52:55;;;;;;;4.78;2.42;;;;;;;;;;5017657;28;20051;-56
2022/01/21 13:55:41;;;;;;;4.32;2.13;;;;;;;;;;5008254;28;20030;-56
2022/01/21 13:58:12;;;;;;;4.40;2.15;;;;;;;;;;5002736;28;20034;-56
2022/01/21 14:00:40;;;;;;;4.38;2.40;;;;;;;;;;5021202;28;20029;-58
2022/01/21 14:03:14;;;;;;;3.47;2.10;;;;;;;;;;5024191;28;20040;-58
2022/01/21 14:05:47;;;;;;;3.67;2.30;;;;;;;;;;5028437;28;20061;-58
2022/01/21 14:08:13;;;;;;;4.40;2.53;;;;;;;;;;5016412;28;20024;-57
2022/01/21 14:10:38;;;;;;;3.53;2.20;;;;;;;;;;5010719;28;20076;-58
2022/01/21 14:13:04;;;;;;;4.37;2.60;;;;;;;;;;5008396;28;20025;-59
2022/01/21 14:15:30;;;;;;;4.20;2.67;;;;;;;;;;5011538;28;20273;-56
2022/01/21 14:17:55;;;;;;;4.45;2.60;;;;;;;;;;5008362;28;20033;-59
2022/01/21 14:20:21;;;;;;;5.50;2.93;;;;;;;;;;5014414;28;20546;-57
2022/01/21 14:22:47;;;;;;;4.93;2.92;;;;;;;;;;5019509;28;20800;-58
2022/01/21 14:25:13;;;;;;;4.55;2.55;;;;;;;;;;5017532;28;20030;-58
2022/01/21 14:27:38;;;;;;;4.43;2.67;;;;;;;;;;5013551;28;20470;-56
2022/01/21 14:30:04;;;;;;;5.97;3.10;;;;;;;;;;5017693;28;20101;-56
2022/01/21 14:32:35;;;;;;;5.35;3.10;;;;;;;;;;5012252;28;21325;-57
2022/01/21 14:35:29;;;;;;;5.22;3.15;;;;;;;;;;5013112;28;20030;-57
2022/01/21 14:38:00;;;;;;;6.50;3.90;;;;;;;;;;5009559;28;20519;-58
2022/01/21 14:40:26;;;;;;;7.03;3.90;;;;;;;;;;5009731;28;20029;-57
2022/01/21 14:43:08;;;;;;;6.30;3.83;;;;;;;;;;5012246;28;20125;-57
2022/01/21 14:45:33;;;;;;;6.60;4.00;;;;;;;;;;5019342;28;20026;-57
2022/01/21 14:48:10;;;;;;;7.53;4.15;;;;;;;;;;5025366;28;20063;-60
2022/01/21 14:50:35;;;;;;;7.47;4.05;;;;;;;;;;5018283;28;20024;-54
2022/01/21 14:53:00;;;;;;;7.30;4.00;;;;;;;;;;5022837;28;20721;-56
2022/01/21 14:55:28;;;;;;;6.63;3.87;;;;;;;;;;5003486;28;20029;-62
2022/01/21 14:57:57;;;;;;;7.53;4.15;;;;;;;;;;5008429;28;20057;-59
2022/01/21 15:00:30;;;;;;;6.20;3.72;;;;;;;;;;5011668;28;20033;-56
2022/01/21 15:03:02;;;;;;;7.05;4.10;;;;;;;;;;5023196;28;20041;-58
2022/01/21 15:05:28;;;;;;;5.93;3.33;;;;;;;;;;5039556;28;20423;-56
2022/01/21 15:07:53;;;;;;;6.10;3.75;;;;;;;;;;5039499;28;20454;-57
2022/01/21 15:10:34;;;;;;;6.45;3.42;;;;;;;;;;5024034;28;20052;-57
2022/01/21 15:16:04;;;;;;;5.10;3.28;;;;;;;;;;5024281;28;20529;-57
2022/01/21 15:18:30;;;;;;;5.25;3.33;;;;;;;;;;5006030;28;20041;-53
2022/01/21 15:20:55;;;;;;;5.95;3.50;;;;;;;;;;5006288;28;20036;-54
2022/01/21 15:23:20;;;;;;;5.33;3.50;;;;;;;;;;5023396;28;20396;-55
2022/01/21 15:25:45;;;;;;;5.67;3.23;;;;;;;;;;5023254;28;20419;-60
2022/01/21 15:28:11;;;;;;;6.07;3.75;;;;;;;;;;5023283;28;20375;-55
2022/01/21 15:30:36;;;;;;;5.30;3.28;;;;;;;;;;5023356;28;20553;-55
2022/01/21 15:33:01;;;;;;;5.13;3.08;;;;;;;;;;5023208;28;20378;-56
2022/01/21 15:35:27;;;;;;;5.72;3.30;;;;;;;;;;5022886;28;20057;-56
2022/01/21 15:37:52;;;;;;;6.00;3.40;;;;;;;;;;5012520;28;20033;-54
2022/01/21 15:40:17;;;;;;;5.60;3.23;;;;;;;;;;5042986;28;20055;-57
2022/01/21 15:42:43;;;;;;;5.45;2.90;;;;;;;;;;5043074;28;20276;-56
2022/01/21 15:45:09;;;;;;;5.80;3.10;;;;;;;;;;5032038;28;20032;-55
2022/01/21 15:47:34;;;;;;;5.32;3.20;;;;;;;;;;5039724;28;20059;-57